Time;durP1;ratioP1;P1;durP2;ratioP2;P2;SDS_P1;SDS_P2;PMS_P1;PMS_P2;Temp;Humidity;BMP_temperature;BMP_pressure;BME280_temperature;BME280_humidity;BME280_pressure;Samples;Min_cycle;Max_cycle;Signal;HPM_P1;HPM_P2
2023/10/19 00:00:45;;;;;;;27.63;20.52;;;;;;;;;;5053114;28;20057;-76
2023/10/19 00:03:13;;;;;;;31.10;21.95;;;;;;;;;;5055226;28;20470;-75
2023/10/19 00:05:44;;;;;;;29.23;20.35;;;;;;;;;;5055535;28;20049;-75
2023/10/19 00:08:17;;;;;;;31.23;20.73;;;;;;;;;;5054394;28;20095;-75
2023/10/19 00:10:55;;;;;;;27.73;20.00;;;;;;;;;;5053907;28;20053;-75
2023/10/19 00:13:22;;;;;;;33.72;21.75;;;;;;;;;;5054179;28;20079;-76
2023/10/19 00:15:51;;;;;;;36.17;21.85;;;;;;;;;;5054137;28;20060;-76
2023/10/19 00:18:22;;;;;;;33.60;22.30;;;;;;;;;;5055431;28;20074;-75
2023/10/19 00:23:31;;;;;;;32.90;22.33;;;;;;;;;;5046491;28;20099;-76
2023/10/19 00:26:05;;;;;;;30.65;20.48;;;;;;;;;;5053353;28;20051;-76
2023/10/19 00:28:35;;;;;;;34.08;22.95;;;;;;;;;;5054724;28;20048;-76
2023/10/19 00:31:09;;;;;;;34.03;23.98;;;;;;;;;;5054487;28;20102;-76
2023/10/19 00:33:38;;;;;;;;;;;;;;;;;;5054017;28;20052;-76
2023/10/19 00:36:07;;;;;;;33.00;22.27;;;;;;;;;;5054595;28;19947;-76
2023/10/19 00:41:12;;;;;;;41.65;25.80;;;;;;;;;;5054387;28;20469;-76
2023/10/19 00:43:44;;;;;;;43.15;26.10;;;;;;;;;;5052990;28;20495;-76
2023/10/19 00:48:54;;;;;;;48.00;29.67;;;;;;;;;;5054114;28;20135;-76
2023/10/19 00:52:11;;;;;;;40.88;26.73;;;;;;;;;;5054251;28;20098;-76
2023/10/19 00:54:15;;;;;;;41.03;27.77;;;;;;;;;;5051056;28;20106;-76
2023/10/19 00:56:48;;;;;;;42.45;28.23;;;;;;;;;;5053920;28;20052;-77
2023/10/19 01:01:49;;;;;;;37.60;27.20;;;;;;;;;;5053954;28;20114;-76
2023/10/19 01:04:31;;;;;;;45.80;29.55;;;;;;;;;;5052767;28;20506;-75
2023/10/19 01:07:00;;;;;;;55.22;31.58;;;;;;;;;;5052847;28;20126;-76
2023/10/19 01:09:28;;;;;;;49.42;30.85;;;;;;;;;;5053805;28;20412;-75
2023/10/19 01:12:01;;;;;;;47.17;29.27;;;;;;;;;;5052560;28;20048;-75
2023/10/19 01:14:29;;;;;;;44.17;28.17;;;;;;;;;;5053625;28;20114;-76
2023/10/19 01:16:57;;;;;;;51.10;30.88;;;;;;;;;;5052614;28;20061;-76
2023/10/19 01:19:27;;;;;;;48.50;30.75;;;;;;;;;;5053457;28;20049;-75
2023/10/19 01:21:59;;;;;;;49.53;31.77;;;;;;;;;;5053670;28;20110;-76
2023/10/19 01:24:42;;;;;;;48.50;32.28;;;;;;;;;;5052708;28;20049;-75
2023/10/19 01:27:10;;;;;;;46.67;30.33;;;;;;;;;;5047036;28;20049;-75
2023/10/19 01:29:41;;;;;;;51.65;32.33;;;;;;;;;;5050838;28;20102;-76
2023/10/19 01:32:08;;;;;;;55.38;33.25;;;;;;;;;;5053398;28;20053;-76
2023/10/19 01:34:36;;;;;;;54.00;34.47;;;;;;;;;;5052074;28;20049;-75
2023/10/19 01:37:04;;;;;;;52.20;33.28;;;;;;;;;;5052166;28;20044;-76
2023/10/19 01:39:34;;;;;;;54.90;33.30;;;;;;;;;;5053191;28;20048;-76
2023/10/19 01:42:04;;;;;;;53.55;32.80;;;;;;;;;;5053219;28;20057;-76
2023/10/19 01:44:35;;;;;;;52.90;34.65;;;;;;;;;;5053419;28;20052;-76
2023/10/19 01:47:05;;;;;;;52.05;34.40;;;;;;;;;;5053532;28;20132;-76
2023/10/19 01:49:33;;;;;;;54.30;34.67;;;;;;;;;;5053538;28;20087;-76
2023/10/19 01:52:00;;;;;;;51.05;34.45;;;;;;;;;;5052312;28;20124;-76
2023/10/19 01:54:28;;;;;;;49.58;33.72;;;;;;;;;;5053290;28;20478;-76
2023/10/19 01:56:56;;;;;;;50.70;33.45;;;;;;;;;;5051911;28;20203;-76
2023/10/19 01:59:27;;;;;;;46.67;30.80;;;;;;;;;;5052070;28;20135;-76
2023/10/19 02:01:56;;;;;;;45.55;31.50;;;;;;;;;;5052852;28;20131;-76
2023/10/19 02:04:25;;;;;;;41.85;29.58;;;;;;;;;;5053078;28;20077;-76
2023/10/19 02:06:53;;;;;;;42.60;28.92;;;;;;;;;;5053164;28;20049;-76
2023/10/19 02:09:30;;;;;;;37.85;27.85;;;;;;;;;;5043699;28;20415;-76
2023/10/19 02:11:57;;;;;;;36.10;27.05;;;;;;;;;;5044730;28;20045;-76
2023/10/19 02:14:25;;;;;;;34.75;24.13;;;;;;;;;;5051904;28;20045;-76
2023/10/19 02:16:58;;;;;;;33.72;24.35;;;;;;;;;;5053081;28;20136;-76
2023/10/19 02:19:26;;;;;;;;;;;;;;;;;;5052188;28;20059;-76
2023/10/19 02:21:58;;;;;;;30.15;21.83;;;;;;;;;;5051815;28;19921;-76
2023/10/19 02:24:26;;;;;;;29.27;21.75;;;;;;;;;;5053242;28;20465;-77
2023/10/19 02:26:57;;;;;;;24.63;19.98;;;;;;;;;;5049008;28;20101;-76
2023/10/19 02:29:27;;;;;;;24.98;19.38;;;;;;;;;;5048745;28;20045;-77
2023/10/19 02:31:56;;;;;;;25.25;18.88;;;;;;;;;;5052916;28;20057;-76
2023/10/19 02:34:23;;;;;;;24.35;18.85;;;;;;;;;;5051778;28;20052;-76
2023/10/19 02:36:51;;;;;;;22.15;18.52;;;;;;;;;;5051732;28;20051;-78
2023/10/19 02:39:18;;;;;;;26.95;19.60;;;;;;;;;;5051954;28;20430;-76
2023/10/19 02:41:47;;;;;;;24.10;18.08;;;;;;;;;;5053057;28;20515;-77
2023/10/19 02:46:43;;;;;;;22.88;19.80;;;;;;;;;;5052642;28;20064;-76
2023/10/19 02:49:11;;;;;;;26.92;20.55;;;;;;;;;;5052022;28;20051;-76
2023/10/19 02:51:39;;;;;;;26.90;21.30;;;;;;;;;;5044596;28;20072;-76
2023/10/19 02:54:07;;;;;;;28.67;21.00;;;;;;;;;;5067734;22;20068;-83
2023/10/19 02:56:35;;;;;;;25.73;21.10;;;;;;;;;;5029238;28;20073;-82
2023/10/19 02:59:06;;;;;;;25.42;21.17;;;;;;;;;;5004248;28;20046;-83
2023/10/19 03:01:36;;;;;;;26.65;21.10;;;;;;;;;;5018577;28;20046;-84
2023/10/19 03:04:06;;;;;;;26.73;20.58;;;;;;;;;;5016591;28;20504;-84
2023/10/19 03:06:33;;;;;;;24.67;20.15;;;;;;;;;;5020369;28;20046;-84
2023/10/19 03:09:22;;;;;;;27.33;19.33;;;;;;;;;;5009649;28;20472;-83
2023/10/19 03:11:55;;;;;;;24.15;20.38;;;;;;;;;;4999491;28;20493;-81
2023/10/19 03:14:25;;;;;;;23.00;19.95;;;;;;;;;;5015594;28;20057;-85
2023/10/19 03:16:57;;;;;;;24.13;19.75;;;;;;;;;;5002358;28;20054;-84
2023/10/19 03:19:25;;;;;;;25.38;19.90;;;;;;;;;;5018231;28;20053;-83
2023/10/19 03:21:53;;;;;;;25.83;19.92;;;;;;;;;;5011347;28;20137;-82
2023/10/19 03:24:23;;;;;;;23.48;18.92;;;;;;;;;;5005933;28;20062;-83
2023/10/19 03:26:54;;;;;;;26.70;20.40;;;;;;;;;;5009335;28;20563;-85
2023/10/19 03:29:31;;;;;;;23.67;19.50;;;;;;;;;;5015101;28;20046;-82
2023/10/19 03:31:59;;;;;;;22.35;18.73;;;;;;;;;;4987173;28;20081;-84
2023/10/19 03:34:26;;;;;;;23.60;19.65;;;;;;;;;;5009832;28;20568;-84
2023/10/19 03:36:54;;;;;;;24.17;19.13;;;;;;;;;;5019069;28;20402;-83
2023/10/19 03:39:21;;;;;;;24.38;19.40;;;;;;;;;;5018286;28;20045;-82
2023/10/19 03:41:51;;;;;;;23.08;19.70;;;;;;;;;;5000898;28;20104;-83
2023/10/19 03:44:24;;;;;;;24.13;19.88;;;;;;;;;;5003601;28;20052;-83
2023/10/19 03:47:01;;;;;;;23.92;19.70;;;;;;;;;;5002654;28;20053;-85
2023/10/19 03:49:37;;;;;;;21.40;18.70;;;;;;;;;;5022650;28;20494;-84
2023/10/19 03:54:42;;;;;;;21.10;18.80;;;;;;;;;;5012257;28;20483;-82
2023/10/19 04:00:14;;;;;;;22.02;18.40;;;;;;;;;;4997285;28;20050;-85
2023/10/19 04:02:44;;;;;;;22.58;19.13;;;;;;;;;;5017274;28;20049;-84
2023/10/19 04:05:15;;;;;;;23.90;17.98;;;;;;;;;;5018134;28;20506;-82
2023/10/19 04:07:43;;;;;;;20.00;17.83;;;;;;;;;;5011076;28;20396;-86
2023/10/19 04:10:29;;;;;;;23.45;18.77;;;;;;;;;;5009628;28;20495;-86
2023/10/19 04:13:00;;;;;;;22.25;18.25;;;;;;;;;;5012725;28;20094;-86
2023/10/19 04:15:35;;;;;;;21.88;18.33;;;;;;;;;;5014357;28;20419;-85
2023/10/19 04:18:10;;;;;;;22.45;17.90;;;;;;;;;;5016542;28;20058;-86
2023/10/19 04:23:14;;;;;;;18.80;16.27;;;;;;;;;;5026260;28;20046;-86
2023/10/19 04:25:45;;;;;;;20.40;15.85;;;;;;;;;;5034151;28;20064;-84
2023/10/19 04:28:14;;;;;;;17.60;15.65;;;;;;;;;;5030788;28;20073;-85
2023/10/19 04:30:41;;;;;;;15.98;14.20;;;;;;;;;;5031099;28;20041;-85
2023/10/19 04:33:09;;;;;;;20.23;15.98;;;;;;;;;;5020483;28;20085;-85
2023/10/19 04:35:37;;;;;;;16.95;14.63;;;;;;;;;;5021423;28;20053;-85
2023/10/19 04:38:08;;;;;;;17.45;14.95;;;;;;;;;;5026254;28;20394;-85
2023/10/19 04:40:35;;;;;;;18.40;13.98;;;;;;;;;;5018728;28;20046;-84
2023/10/19 04:43:06;;;;;;;13.68;12.27;;;;;;;;;;4996350;28;20104;-86
2023/10/19 04:45:34;;;;;;;13.25;11.82;;;;;;;;;;5018924;28;20052;-86
2023/10/19 04:48:04;;;;;;;11.82;9.70;;;;;;;;;;5008786;28;20076;-86
2023/10/19 04:50:32;;;;;;;11.50;9.82;;;;;;;;;;5023074;28;20088;-84
2023/10/19 04:52:59;;;;;;;9.15;8.23;;;;;;;;;;5026004;28;20054;-83
2023/10/19 04:55:27;;;;;;;10.52;9.45;;;;;;;;;;5006472;28;20064;-85
2023/10/19 04:57:54;;;;;;;8.60;7.70;;;;;;;;;;5007007;28;20120;-86
2023/10/19 05:00:24;;;;;;;8.65;7.88;;;;;;;;;;5008845;28;20054;-83
2023/10/19 05:02:51;;;;;;;8.38;7.57;;;;;;;;;;5008044;28;20445;-86
2023/10/19 05:05:19;;;;;;;6.50;5.95;;;;;;;;;;4999727;28;20133;-85
2023/10/19 05:07:47;;;;;;;6.15;5.65;;;;;;;;;;5016888;28;20056;-85
2023/10/19 05:10:14;;;;;;;5.07;4.57;;;;;;;;;;5001557;28;20054;-85
2023/10/19 05:12:41;;;;;;;4.10;3.80;;;;;;;;;;4999679;28;20048;-85
2023/10/19 05:15:09;;;;;;;3.75;3.55;;;;;;;;;;5009655;28;20050;-84
2023/10/19 05:17:36;;;;;;;4.32;3.92;;;;;;;;;;4998799;28;20506;-85
2023/10/19 05:20:05;;;;;;;3.30;3.10;;;;;;;;;;5007017;28;20104;-84
2023/10/19 05:22:33;;;;;;;3.40;3.20;;;;;;;;;;4998789;28;20057;-84
2023/10/19 05:25:01;;;;;;;3.80;3.60;;;;;;;;;;5014596;28;20054;-85
2023/10/19 05:27:28;;;;;;;3.60;3.40;;;;;;;;;;5007209;28;20071;-86
2023/10/19 05:29:56;;;;;;;6.57;5.97;;;;;;;;;;5018792;28;20050;-85
2023/10/19 05:32:24;;;;;;;3.47;3.28;;;;;;;;;;5016743;28;20100;-83
2023/10/19 05:34:52;;;;;;;2.83;2.72;;;;;;;;;;5014729;28;20053;-84
2023/10/19 05:37:19;;;;;;;2.40;2.30;;;;;;;;;;5015878;28;20050;-84
2023/10/19 05:39:47;;;;;;;2.70;2.50;;;;;;;;;;5018051;28;20125;-84
2023/10/19 05:42:14;;;;;;;2.50;2.40;;;;;;;;;;5017788;28;20561;-86
2023/10/19 05:44:41;;;;;;;3.10;2.90;;;;;;;;;;5003184;28;20051;-85
2023/10/19 05:47:08;;;;;;;2.35;2.25;;;;;;;;;;4997692;28;20049;-86
2023/10/19 05:49:36;;;;;;;7.60;3.28;;;;;;;;;;5014580;28;20396;-85
2023/10/19 05:52:03;;;;;;;4.32;3.60;;;;;;;;;;5009035;28;20514;-84
2023/10/19 05:54:31;;;;;;;3.60;3.40;;;;;;;;;;5007031;28;20068;-84
2023/10/19 05:56:58;;;;;;;3.33;2.97;;;;;;;;;;5009426;28;20341;-85
2023/10/19 05:59:26;;;;;;;2.70;2.60;;;;;;;;;;5018055;28;20046;-84
2023/10/19 06:01:54;;;;;;;2.45;2.25;;;;;;;;;;5009979;28;20107;-86
2023/10/19 06:04:21;;;;;;;3.08;2.97;;;;;;;;;;5010906;28;20047;-84
2023/10/19 06:06:49;;;;;;;3.70;3.40;;;;;;;;;;5008859;28;20484;-85
2023/10/19 06:09:17;;;;;;;3.20;2.90;;;;;;;;;;5008612;28;20101;-84
2023/10/19 06:12:03;;;;;;;4.28;3.97;;;;;;;;;;5007897;28;20450;-85
2023/10/19 06:14:37;;;;;;;6.28;5.70;;;;;;;;;;5013106;28;20050;-84
2023/10/19 06:17:04;;;;;;;4.68;4.28;;;;;;;;;;5015070;28;20495;-85
2023/10/19 06:19:32;;;;;;;4.50;4.20;;;;;;;;;;5016259;28;20056;-84
2023/10/19 06:22:00;;;;;;;6.03;5.53;;;;;;;;;;5016646;28;20089;-86
2023/10/19 06:24:27;;;;;;;9.73;8.00;;;;;;;;;;5015793;28;20117;-85
2023/10/19 06:26:55;;;;;;;7.65;6.93;;;;;;;;;;5015871;28;20388;-85
2023/10/19 06:29:27;;;;;;;9.10;8.25;;;;;;;;;;5007904;28;20479;-85
2023/10/19 06:31:54;;;;;;;9.55;8.65;;;;;;;;;;4993381;28;20569;-84
2023/10/19 06:34:22;;;;;;;12.38;11.07;;;;;;;;;;4986051;28;20074;-85
2023/10/19 06:36:50;;;;;;;15.18;12.63;;;;;;;;;;5002337;28;20058;-84
2023/10/19 06:39:20;;;;;;;20.30;14.93;;;;;;;;;;5017818;28;20446;-84
2023/10/19 06:41:49;;;;;;;13.43;12.02;;;;;;;;;;5016003;28;20073;-85
2023/10/19 06:44:16;;;;;;;15.50;13.25;;;;;;;;;;5015049;28;20082;-86
2023/10/19 06:46:44;;;;;;;19.30;15.82;;;;;;;;;;5015819;28;20060;-85
2023/10/19 06:49:11;;;;;;;15.98;14.27;;;;;;;;;;5007647;28;20045;-84
2023/10/19 06:51:39;;;;;;;19.42;14.70;;;;;;;;;;5007433;28;20058;-85
2023/10/19 06:54:08;;;;;;;17.48;13.70;;;;;;;;;;5016491;28;20045;-85
2023/10/19 06:56:37;;;;;;;18.75;14.77;;;;;;;;;;5015132;28;20132;-85
2023/10/19 06:59:05;;;;;;;16.52;14.07;;;;;;;;;;5015025;28;20141;-85
2023/10/19 07:01:33;;;;;;;20.48;15.90;;;;;;;;;;5016659;28;20046;-86
2023/10/19 07:04:00;;;;;;;19.27;15.13;;;;;;;;;;5015241;28;20136;-85
2023/10/19 07:06:40;;;;;;;21.52;16.25;;;;;;;;;;5014659;28;20057;-86
2023/10/19 07:09:21;;;;;;;17.63;14.38;;;;;;;;;;5015418;28;20110;-85
2023/10/19 07:11:52;;;;;;;17.42;14.32;;;;;;;;;;4997709;28;20512;-86
2023/10/19 07:14:22;;;;;;;18.17;14.23;;;;;;;;;;5012941;28;20100;-85
2023/10/19 07:16:51;;;;;;;17.52;13.55;;;;;;;;;;5000280;28;20042;-85
2023/10/19 07:19:21;;;;;;;17.35;13.32;;;;;;;;;;5007499;28;20076;-86
2023/10/19 07:21:57;;;;;;;13.53;11.87;;;;;;;;;;5011539;28;20527;-84
2023/10/19 07:24:25;;;;;;;17.00;11.70;;;;;;;;;;5007639;28;20409;-85
2023/10/19 07:27:01;;;;;;;17.40;13.13;;;;;;;;;;5015405;28;20407;-86
2023/10/19 07:29:36;;;;;;;12.98;11.25;;;;;;;;;;5020109;28;20128;-85
2023/10/19 07:32:05;;;;;;;13.10;11.75;;;;;;;;;;5010920;28;20046;-85
2023/10/19 07:34:34;;;;;;;13.48;10.98;;;;;;;;;;5018537;28;20049;-86
2023/10/19 07:37:03;;;;;;;13.60;11.13;;;;;;;;;;5012262;28;20496;-85
2023/10/19 07:39:33;;;;;;;15.05;11.48;;;;;;;;;;5011533;28;20050;-86
2023/10/19 07:42:06;;;;;;;13.45;10.60;;;;;;;;;;5015720;28;20058;-85
2023/10/19 07:44:34;;;;;;;12.73;9.98;;;;;;;;;;5010651;28;20054;-85
2023/10/19 07:47:02;;;;;;;11.82;9.90;;;;;;;;;;5016174;28;20459;-86
2023/10/19 07:49:30;;;;;;;13.52;9.60;;;;;;;;;;5020788;28;20137;-86
2023/10/19 07:51:59;;;;;;;14.70;10.48;;;;;;;;;;5020952;28;20510;-86
2023/10/19 07:54:27;;;;;;;15.15;11.77;;;;;;;;;;5014193;28;20463;-86
2023/10/19 07:56:55;;;;;;;15.05;11.05;;;;;;;;;;5027552;28;20060;-87
2023/10/19 07:59:24;;;;;;;15.85;11.75;;;;;;;;;;5022375;28;20460;-87
2023/10/19 08:01:52;;;;;;;14.45;12.05;;;;;;;;;;5038680;28;20052;-85
2023/10/19 08:04:30;;;;;;;15.93;11.77;;;;;;;;;;5033544;28;20053;-86
2023/10/19 08:06:59;;;;;;;15.00;11.52;;;;;;;;;;5007087;28;20128;-86
2023/10/19 08:09:35;;;;;;;14.02;11.85;;;;;;;;;;5022679;28;20042;-86
2023/10/19 08:12:29;;;;;;;18.83;13.55;;;;;;;;;;5024300;28;20070;-86
2023/10/19 08:15:06;;;;;;;17.95;13.63;;;;;;;;;;5002526;28;20049;-84
2023/10/19 08:17:38;;;;;;;19.98;14.07;;;;;;;;;;5012195;28;20494;-86
2023/10/19 08:20:39;;;;;;;15.55;11.98;;;;;;;;;;5011366;28;20062;-86
2023/10/19 08:26:15;;;;;;;20.23;15.07;;;;;;;;;;4993269;28;20129;-84
2023/10/19 08:28:59;;;;;;;17.45;13.52;;;;;;;;;;5022614;28;20078;-86
2023/10/19 08:31:35;;;;;;;19.10;14.32;;;;;;;;;;5022194;28;20080;-87
2023/10/19 08:34:12;;;;;;;19.00;13.77;;;;;;;;;;5018340;28;20145;-85
2023/10/19 08:36:40;;;;;;;17.70;13.07;;;;;;;;;;5008953;28;20069;-86
2023/10/19 08:39:13;;;;;;;18.02;13.52;;;;;;;;;;5014297;28;20088;-87
2023/10/19 08:41:44;;;;;;;18.73;12.65;;;;;;;;;;5018589;28;20050;-86
2023/10/19 08:44:19;;;;;;;16.40;10.98;;;;;;;;;;5017573;28;20427;-87
2023/10/19 08:46:51;;;;;;;13.85;11.00;;;;;;;;;;5010354;28;20057;-86
2023/10/19 08:49:22;;;;;;;14.05;10.40;;;;;;;;;;5019689;28;20050;-85
2023/10/19 08:51:54;;;;;;;17.77;12.05;;;;;;;;;;4996383;28;20491;-86
2023/10/19 08:54:22;;;;;;;16.55;11.88;;;;;;;;;;5009340;28;20054;-86
2023/10/19 08:56:49;;;;;;;15.15;11.43;;;;;;;;;;5019536;28;20053;-85
2023/10/19 08:59:17;;;;;;;14.18;10.95;;;;;;;;;;5023494;28;20050;-86
2023/10/19 09:01:44;;;;;;;15.55;11.70;;;;;;;;;;5018675;28;20061;-86
2023/10/19 09:04:20;;;;;;;15.52;10.85;;;;;;;;;;5016209;28;20053;-86
2023/10/19 09:06:55;;;;;;;13.27;10.50;;;;;;;;;;5018602;28;20089;-87
2023/10/19 09:09:26;;;;;;;14.75;10.65;;;;;;;;;;5021398;28;20065;-88
2023/10/19 09:11:54;;;;;;;15.05;10.90;;;;;;;;;;5015134;28;20132;-87
2023/10/19 09:14:34;;;;;;;14.63;10.88;;;;;;;;;;5017348;28;20502;-86
2023/10/19 09:17:03;;;;;;;15.95;11.20;;;;;;;;;;5005841;28;20058;-87
2023/10/19 09:19:40;;;;;;;15.30;10.98;;;;;;;;;;5020900;28;20466;-87
2023/10/19 09:22:08;;;;;;;;;;;;;;;;;;5022011;28;20058;-86
2023/10/19 09:24:38;;;;;;;12.70;10.23;;;;;;;;;;5021146;28;19944;-86
2023/10/19 09:27:07;;;;;;;12.60;10.70;;;;;;;;;;5012045;28;20054;-87
2023/10/19 09:29:36;;;;;;;13.52;10.80;;;;;;;;;;5017734;28;20046;-86
2023/10/19 09:32:04;;;;;;;13.18;10.60;;;;;;;;;;5020312;28;20074;-86
2023/10/19 09:34:45;;;;;;;13.38;10.35;;;;;;;;;;5031886;28;20045;-86
2023/10/19 09:37:12;;;;;;;12.70;9.23;;;;;;;;;;5015388;28;20080;-85
2023/10/19 09:39:43;;;;;;;10.82;8.98;;;;;;;;;;5031112;28;20049;-84
2023/10/19 09:42:12;;;;;;;10.75;9.10;;;;;;;;;;4989460;28;20049;-85
2023/10/19 09:44:41;;;;;;;10.23;8.50;;;;;;;;;;5015534;28;20042;-85
2023/10/19 09:47:19;;;;;;;9.52;7.88;;;;;;;;;;5015654;28;20057;-86
2023/10/19 09:49:50;;;;;;;10.48;8.13;;;;;;;;;;4996908;28;20133;-84
2023/10/19 09:52:19;;;;;;;8.57;7.68;;;;;;;;;;5006815;28;20046;-84
2023/10/19 09:54:47;;;;;;;7.70;6.93;;;;;;;;;;5017527;28;20089;-86
2023/10/19 09:57:18;;;;;;;7.65;6.85;;;;;;;;;;5017229;28;20062;-85
2023/10/19 09:59:48;;;;;;;9.32;6.68;;;;;;;;;;5005202;28;20057;-86
2023/10/19 10:02:17;;;;;;;5.80;5.30;;;;;;;;;;5012960;28;20076;-84
2023/10/19 10:04:48;;;;;;;6.82;6.00;;;;;;;;;;5009318;28;20480;-85
2023/10/19 10:07:19;;;;;;;5.18;4.75;;;;;;;;;;5017826;28;20046;-84
2023/10/19 10:10:09;;;;;;;5.97;5.38;;;;;;;;;;5017188;28;20045;-86
2023/10/19 10:12:47;;;;;;;4.45;4.05;;;;;;;;;;5017699;28;20669;-85
2023/10/19 10:15:39;;;;;;;3.88;3.60;;;;;;;;;;5016969;28;20050;-85
2023/10/19 10:18:15;;;;;;;4.28;3.65;;;;;;;;;;4999532;28;20492;-86
2023/10/19 10:20:48;;;;;;;4.03;3.78;;;;;;;;;;5018667;28;20077;-85
2023/10/19 10:23:34;;;;;;;3.38;3.17;;;;;;;;;;5019889;28;20053;-84
2023/10/19 10:26:08;;;;;;;4.30;3.10;;;;;;;;;;5017425;28;20050;-86
2023/10/19 10:29:19;;;;;;;4.07;3.45;;;;;;;;;;5018795;28;20471;-85
2023/10/19 10:31:49;;;;;;;3.17;2.97;;;;;;;;;;5021769;28;20056;-85
2023/10/19 10:34:40;;;;;;;4.72;3.75;;;;;;;;;;5020919;28;20408;-85
2023/10/19 10:37:08;;;;;;;3.92;3.58;;;;;;;;;;5003779;28;20093;-86
2023/10/19 10:39:51;;;;;;;4.00;3.80;;;;;;;;;;5019808;28;20057;-86
2023/10/19 10:42:27;;;;;;;3.55;3.35;;;;;;;;;;5022302;28;20061;-86
2023/10/19 10:45:09;;;;;;;4.38;3.97;;;;;;;;;;5007115;28;20447;-84
2023/10/19 10:47:37;;;;;;;4.72;4.32;;;;;;;;;;5023595;28;20069;-85
2023/10/19 10:50:09;;;;;;;3.70;3.40;;;;;;;;;;5022271;28;20077;-87
2023/10/19 10:52:48;;;;;;;3.47;3.22;;;;;;;;;;5022050;28;20053;-85
2023/10/19 10:55:25;;;;;;;3.05;2.85;;;;;;;;;;5018877;28;20057;-86
2023/10/19 10:58:01;;;;;;;3.53;3.33;;;;;;;;;;5020140;28;20049;-86
2023/10/19 11:00:34;;;;;;;3.28;3.08;;;;;;;;;;5037138;28;20034;-86
2023/10/19 11:06:10;;;;;;;4.22;3.83;;;;;;;;;;5007491;28;20388;-84
2023/10/19 11:08:43;;;;;;;4.60;4.20;;;;;;;;;;5017303;28;20419;-85
2023/10/19 11:11:11;;;;;;;4.60;4.20;;;;;;;;;;5016751;28;20479;-85
2023/10/19 11:13:39;;;;;;;4.60;4.25;;;;;;;;;;5016814;28;20076;-85
2023/10/19 11:16:07;;;;;;;4.35;3.95;;;;;;;;;;5018536;28;20519;-85
2023/10/19 11:18:42;;;;;;;4.60;4.30;;;;;;;;;;5018171;28;20054;-85
2023/10/19 11:21:22;;;;;;;4.38;3.95;;;;;;;;;;5008778;28;20061;-85
2023/10/19 11:23:53;;;;;;;4.55;4.25;;;;;;;;;;5000492;28;20049;-85
2023/10/19 11:27:02;;;;;;;4.70;4.35;;;;;;;;;;5013899;28;20376;-85
2023/10/19 11:32:27;;;;;;;4.40;4.10;;;;;;;;;;5001129;28;20073;-84
2023/10/19 11:35:11;;;;;;;5.30;4.80;;;;;;;;;;5005885;28;20049;-82
2023/10/19 11:37:58;;;;;;;5.43;5.00;;;;;;;;;;5010186;28;20065;-84
2023/10/19 11:40:40;;;;;;;7.40;6.47;;;;;;;;;;4996522;28;20050;-83
2023/10/19 11:43:15;;;;;;;7.13;6.43;;;;;;;;;;5011213;28;20511;-85
2023/10/19 11:45:51;;;;;;;6.25;5.75;;;;;;;;;;5006121;28;20054;-86
2023/10/19 11:48:21;;;;;;;7.93;7.13;;;;;;;;;;5013073;28;20050;-85
2023/10/19 11:50:48;;;;;;;8.35;7.55;;;;;;;;;;5016224;28;20050;-86
2023/10/19 11:53:24;;;;;;;7.57;6.82;;;;;;;;;;5015676;28;20120;-83
2023/10/19 11:55:54;;;;;;;8.07;7.28;;;;;;;;;;5008631;28;20054;-85
2023/10/19 11:58:39;;;;;;;9.50;7.93;;;;;;;;;;5009276;28;20146;-84
2023/10/19 12:01:24;;;;;;;11.18;8.90;;;;;;;;;;5009331;28;20073;-85
2023/10/19 12:03:59;;;;;;;13.23;10.48;;;;;;;;;;4995850;28;20466;-85
2023/10/19 12:06:28;;;;;;;14.10;11.50;;;;;;;;;;5015985;28;20052;-83
2023/10/19 12:11:53;;;;;;;12.55;10.35;;;;;;;;;;5000359;28;20603;-84
2023/10/19 12:14:35;;;;;;;14.60;11.35;;;;;;;;;;5006560;28;20464;-85
2023/10/19 12:17:08;;;;;;;14.77;11.32;;;;;;;;;;5016753;28;20577;-84
2023/10/19 12:19:41;;;;;;;16.55;11.52;;;;;;;;;;5018480;28;20140;-84
2023/10/19 12:22:08;;;;;;;14.07;10.95;;;;;;;;;;5019514;28;20078;-83
2023/10/19 12:24:41;;;;;;;14.10;11.65;;;;;;;;;;5017979;28;20050;-86
2023/10/19 12:27:13;;;;;;;13.80;9.98;;;;;;;;;;5009692;28;20049;-85
2023/10/19 12:29:43;;;;;;;13.88;11.35;;;;;;;;;;5018247;28;20523;-83
2023/10/19 12:32:13;;;;;;;15.10;11.25;;;;;;;;;;5018013;28;20141;-85
2023/10/19 12:34:41;;;;;;;14.70;11.57;;;;;;;;;;5010059;28;20045;-83
2023/10/19 12:37:11;;;;;;;12.13;10.38;;;;;;;;;;5009555;28;20050;-86
2023/10/19 12:39:59;;;;;;;13.68;11.25;;;;;;;;;;5018246;28;20050;-86
2023/10/19 12:42:28;;;;;;;14.45;11.30;;;;;;;;;;5019622;28;20053;-84
2023/10/19 12:44:55;;;;;;;17.25;12.18;;;;;;;;;;5018002;28;20053;-85
2023/10/19 12:47:24;;;;;;;14.98;11.13;;;;;;;;;;5018153;28;20053;-84
2023/10/19 12:49:51;;;;;;;15.82;11.98;;;;;;;;;;4996558;28;20133;-84
2023/10/19 12:52:22;;;;;;;17.23;11.57;;;;;;;;;;5021853;28;20073;-85
2023/10/19 12:54:59;;;;;;;15.02;11.55;;;;;;;;;;5012328;28;20076;-84
2023/10/19 12:57:27;;;;;;;14.38;10.73;;;;;;;;;;5019389;28;20054;-84
2023/10/19 12:59:54;;;;;;;15.52;11.43;;;;;;;;;;5011428;28;20068;-84
2023/10/19 13:02:21;;;;;;;14.25;11.45;;;;;;;;;;5019820;28;20454;-84
2023/10/19 13:04:49;;;;;;;12.07;10.80;;;;;;;;;;5004530;28;20054;-85
2023/10/19 13:07:16;;;;;;;15.70;10.90;;;;;;;;;;5006099;28;20530;-83
2023/10/19 13:09:44;;;;;;;13.32;11.38;;;;;;;;;;5019832;28;20451;-85
2023/10/19 13:12:12;;;;;;;14.85;11.73;;;;;;;;;;5011514;28;20051;-84
2023/10/19 13:14:43;;;;;;;13.82;11.50;;;;;;;;;;5003133;28;20085;-85
2023/10/19 13:17:11;;;;;;;15.10;11.57;;;;;;;;;;5022867;28;20144;-85
2023/10/19 13:23:25;;;;;;;14.95;12.05;;;;;;;;;;4973412;28;20045;-85
2023/10/19 13:28:35;;;;;;;16.30;13.10;;;;;;;;;;5022355;28;20056;-84
2023/10/19 13:31:13;;;;;;;15.38;11.43;;;;;;;;;;5007776;28;20113;-85
2023/10/19 13:33:45;;;;;;;13.85;10.38;;;;;;;;;;5021307;28;20642;-85
2023/10/19 13:36:12;;;;;;;12.27;9.82;;;;;;;;;;5022145;28;20050;-85
2023/10/19 13:38:40;;;;;;;11.30;9.77;;;;;;;;;;5003924;28;20081;-85
2023/10/19 13:41:09;;;;;;;13.30;10.20;;;;;;;;;;5020850;28;20050;-85
2023/10/19 13:43:37;;;;;;;19.05;10.70;;;;;;;;;;5023353;28;20050;-86
2023/10/19 13:46:06;;;;;;;12.63;10.48;;;;;;;;;;5015294;28;20479;-85
2023/10/19 13:48:33;;;;;;;11.13;9.93;;;;;;;;;;5011506;28;20046;-86
2023/10/19 13:51:05;;;;;;;10.23;8.95;;;;;;;;;;5023162;28;20092;-85
2023/10/19 13:56:33;;;;;;;11.23;8.98;;;;;;;;;;4993978;28;20055;-82
2023/10/19 13:59:00;;;;;;;11.43;9.32;;;;;;;;;;4996001;28;20050;-81
2023/10/19 14:01:28;;;;;;;15.88;13.98;;;;;;;;;;4996818;28;20046;-82
2023/10/19 14:03:56;;;;;;;18.25;14.38;;;;;;;;;;4985835;28;20078;-82
2023/10/19 14:06:25;;;;;;;19.38;13.82;;;;;;;;;;4974143;28;20051;-82
2023/10/19 14:08:52;;;;;;;14.25;12.10;;;;;;;;;;4974455;28;20105;-82
2023/10/19 14:11:21;;;;;;;15.13;12.10;;;;;;;;;;4984364;28;20054;-81
2023/10/19 14:13:51;;;;;;;13.38;10.75;;;;;;;;;;4968314;28;20046;-81
2023/10/19 14:16:19;;;;;;;16.48;12.73;;;;;;;;;;4978638;28;20564;-81
2023/10/19 14:18:47;;;;;;;15.30;10.98;;;;;;;;;;4985005;28;20101;-81
2023/10/19 14:21:15;;;;;;;16.02;11.68;;;;;;;;;;4984341;28;20398;-81
2023/10/19 14:23:44;;;;;;;12.35;10.70;;;;;;;;;;4979004;28;20061;-81
2023/10/19 14:26:11;;;;;;;13.80;10.82;;;;;;;;;;4977585;28;20046;-82
2023/10/19 14:28:40;;;;;;;15.10;10.93;;;;;;;;;;4973664;28;20057;-82
2023/10/19 14:31:08;;;;;;;14.40;12.13;;;;;;;;;;4984440;28;20069;-82
2023/10/19 14:33:35;;;;;;;14.88;12.13;;;;;;;;;;4984714;28;20046;-81
2023/10/19 14:36:07;;;;;;;14.85;11.88;;;;;;;;;;4976545;28;20070;-81
2023/10/19 14:38:36;;;;;;;16.10;11.80;;;;;;;;;;4975832;28;20047;-82
2023/10/19 14:41:03;;;;;;;16.65;12.57;;;;;;;;;;4973310;28;20131;-81
2023/10/19 14:43:32;;;;;;;17.27;13.10;;;;;;;;;;4979645;28;20474;-81
2023/10/19 14:46:01;;;;;;;19.55;13.70;;;;;;;;;;4980683;28;20068;-82
2023/10/19 14:48:29;;;;;;;15.10;12.38;;;;;;;;;;4979849;28;20138;-82
2023/10/19 14:51:00;;;;;;;15.75;12.52;;;;;;;;;;4988712;28;20055;-82
2023/10/19 14:53:27;;;;;;;17.85;12.30;;;;;;;;;;4979654;28;20047;-82
2023/10/19 14:55:58;;;;;;;13.98;12.25;;;;;;;;;;4980130;28;20051;-81
2023/10/19 14:58:25;;;;;;;13.68;11.18;;;;;;;;;;4970563;28;20058;-82
2023/10/19 15:00:56;;;;;;;16.05;11.32;;;;;;;;;;4985464;28;20066;-82
2023/10/19 15:03:28;;;;;;;14.45;11.80;;;;;;;;;;4980118;28;20059;-82
2023/10/19 15:05:58;;;;;;;14.05;10.90;;;;;;;;;;4979907;28;20082;-82
2023/10/19 15:08:26;;;;;;;14.55;10.93;;;;;;;;;;4985884;28;20051;-82
2023/10/19 15:10:54;;;;;;;13.15;10.90;;;;;;;;;;4983604;28;20458;-82
2023/10/19 15:13:22;;;;;;;15.75;11.05;;;;;;;;;;4981765;28;20046;-82
2023/10/19 15:15:49;;;;;;;19.65;11.38;;;;;;;;;;4978746;28;20085;-81
2023/10/19 15:18:18;;;;;;;16.58;12.90;;;;;;;;;;4978585;28;20130;-82
2023/10/19 15:20:46;;;;;;;14.90;11.13;;;;;;;;;;4988679;28;20486;-82
2023/10/19 15:23:13;;;;;;;18.23;12.70;;;;;;;;;;4986643;28;20050;-81
2023/10/19 15:25:40;;;;;;;18.25;14.18;;;;;;;;;;4980723;28;20051;-82
2023/10/19 15:28:09;;;;;;;21.55;17.35;;;;;;;;;;4978902;28;20058;-82
2023/10/19 15:30:37;;;;;;;25.67;21.23;;;;;;;;;;4980691;28;20051;-82